Berlaar, Belgium
Current Conditions -  °F | °C
As of 2:50 PM on Wednesday 26 Nov 2014 (Local Time) from EBAW Reporting Station
Haze Haze  
Wind Chill: 40°   Ceiling: 1000
Heat Index: 45°   Visibility: 1.7mi
Dew Point: 41°   Wind: 8mph
Humidity: 87%   Direction: 110°ESE
Pressure: 29.88"   Gusts: NA
Location:  51.12°N, 4.66°E
Report Text: EBAW 261350Z 11007KT 2800 BR SCT005 BKN010 07/05 Q1012 TEMPO BKN005
Loading
Personal Weather Stations






























Interactive Weather Map New forecast layout! Learn more

10-Day Weather Forecast

Advertisements
Track Severe Weather on mobile